createdAt,value
2019-05-28T00:00:10.187Z,82.14
2019-05-28T00:01:10.173Z,82.28
2019-05-28T00:02:10.172Z,81.84
2019-05-28T00:03:10.151Z,81.68
2019-05-28T00:04:10.230Z,81.48
2019-05-28T00:05:10.131Z,80.87
2019-05-28T00:06:10.123Z,80.06
2019-05-28T00:07:10.105Z,79.75
2019-05-28T00:08:10.109Z,79.75
2019-05-28T00:09:10.175Z,79.86
2019-05-28T00:10:10.083Z,78.85
2019-05-28T00:11:10.063Z,78.44
2019-05-28T00:12:10.058Z,78.55
2019-05-28T00:13:10.038Z,78.44
2019-05-28T00:14:10.113Z,78.55
2019-05-28T00:15:10.017Z,78.44
2019-05-28T00:16:10.327Z,78.34
2019-05-28T00:17:10.040Z,78.34
2019-05-28T00:18:09.986Z,77.73
2019-05-28T00:19:09.983Z,76.93
2019-05-28T00:20:09.962Z,77.33
2019-05-28T00:21:09.950Z,77.23
2019-05-28T00:22:09.937Z,77.03
2019-05-28T00:23:10.019Z,76.72
2019-05-28T00:24:09.914Z,76.62
2019-05-28T00:25:09.918Z,76.62
2019-05-28T00:26:09.897Z,76.32
2019-05-28T00:27:09.881Z,76.32
2019-05-28T00:28:09.870Z,76.32
2019-05-28T00:29:09.873Z,76.42
2019-05-28T00:30:19.956Z,75.10
2019-05-28T00:31:10.843Z,75.51
2019-05-28T00:32:09.825Z,75.61
2019-05-28T00:33:09.818Z,75.61
2019-05-28T00:34:09.801Z,75.34
2019-05-28T00:35:09.792Z,76.05
2019-05-28T00:36:09.851Z,76.56
2019-05-28T00:37:09.767Z,76.66
2019-05-28T00:38:09.774Z,76.76
2019-05-28T00:39:09.752Z,76.82
2019-05-28T00:40:09.736Z,76.66
2019-05-28T00:41:09.841Z,76.76
2019-05-28T00:42:09.711Z,76.76
2019-05-28T00:43:09.705Z,76.76
2019-05-28T00:44:09.692Z,76.86
2019-05-28T00:45:09.680Z,76.66
2019-05-28T00:46:09.740Z,76.66
2019-05-28T00:47:09.657Z,76.56
2019-05-28T00:48:09.643Z,76.35
2019-05-28T00:49:09.638Z,76.46
2019-05-28T00:50:09.626Z,76.50
2019-05-28T00:51:09.616Z,77.00
2019-05-28T00:52:09.691Z,76.50
2019-05-28T00:53:09.589Z,77.54
2019-05-28T00:54:09.593Z,78.05
2019-05-28T00:55:09.566Z,77.44
2019-05-28T00:56:09.675Z,77.95
2019-05-28T00:57:09.547Z,77.75
2019-05-28T00:58:09.536Z,77.44
2019-05-28T00:59:09.526Z,77.88
2019-05-28T01:00:09.513Z,77.68
2019-05-28T01:01:09.510Z,77.78
2019-05-28T01:02:09.609Z,77.98
2019-05-28T01:03:09.486Z,78.28
2019-05-28T01:04:09.471Z,78.59
2019-05-28T01:05:09.461Z,78.79
2019-05-28T01:06:09.452Z,78.39
2019-05-28T01:07:09.529Z,78.42
2019-05-28T01:08:09.517Z,78.79
2019-05-28T01:09:09.415Z,78.73
2019-05-28T01:10:09.413Z,78.59
2019-05-28T01:11:09.399Z,78.12
2019-05-28T01:12:09.498Z,78.53
2019-05-28T01:13:09.384Z,78.19
2019-05-28T01:14:09.369Z,78.12
2019-05-28T01:15:09.349Z,78.53
2019-05-28T01:16:09.388Z,78.53
2019-05-28T01:17:09.328Z,78.63
2019-05-28T01:18:09.430Z,78.93
2019-05-28T01:19:09.311Z,78.63
2019-05-28T01:20:09.298Z,78.42
2019-05-28T01:21:09.283Z,78.33
2019-05-28T01:22:09.278Z,78.53
2019-05-28T01:23:09.351Z,78.42
2019-05-28T01:24:09.257Z,78.97
2019-05-28T01:25:09.239Z,78.26
2019-05-28T01:26:09.231Z,78.26
2019-05-28T01:27:09.218Z,78.66
2019-05-28T01:28:09.205Z,78.46
2019-05-28T01:29:09.241Z,78.26
2019-05-28T01:30:09.187Z,78.16
2019-05-28T01:31:09.188Z,77.86
2019-05-28T01:32:09.168Z,77.41
2019-05-28T01:33:09.155Z,77.86
2019-05-28T01:34:09.152Z,77.75
2019-05-28T01:35:09.129Z,77.86
2019-05-28T01:36:09.117Z,77.95
2019-05-28T01:37:09.111Z,77.95
2019-05-28T01:38:09.102Z,77.65
2019-05-28T01:39:09.151Z,77.65
2019-05-28T01:40:09.080Z,77.65
2019-05-28T01:41:09.180Z,77.55
2019-05-28T01:42:09.054Z,78.06
2019-05-28T01:43:09.069Z,77.99
2019-05-28T01:44:09.119Z,78.06
2019-05-28T01:45:09.024Z,78.06
2019-05-28T01:46:09.011Z,78.19
2019-05-28T01:47:09.087Z,77.79
2019-05-28T01:48:08.992Z,77.89
2019-05-28T01:49:08.973Z,78.19
2019-05-28T01:50:08.962Z,78.09
2019-05-28T01:51:08.959Z,78.19
2019-05-28T01:52:08.971Z,78.33
2019-05-28T01:53:08.939Z,78.84
2019-05-28T01:54:08.928Z,78.91
2019-05-28T01:55:08.911Z,78.30
2019-05-28T01:56:08.900Z,78.64
2019-05-28T01:57:08.903Z,78.44
2019-05-28T01:58:08.893Z,78.33
2019-05-28T01:59:08.866Z,78.44
2019-05-28T02:00:08.859Z,78.44
2019-05-28T02:01:12.623Z,79.11
2019-05-28T02:02:08.918Z,78.50
2019-05-28T02:03:08.839Z,78.53
2019-05-28T02:04:08.808Z,78.53
2019-05-28T02:05:08.872Z,78.44
2019-05-28T02:06:08.789Z,78.53
2019-05-28T02:07:08.778Z,78.50
2019-05-28T02:08:08.854Z,78.50
2019-05-28T02:09:08.752Z,78.70
2019-05-28T02:10:08.739Z,78.91
2019-05-28T02:11:08.734Z,78.40
2019-05-28T02:12:08.721Z,78.60
2019-05-28T02:13:08.797Z,79.00
2019-05-28T02:14:08.700Z,78.60
2019-05-28T02:15:08.682Z,78.19
2019-05-28T02:16:08.679Z,78.19
2019-05-28T02:17:08.659Z,78.09
2019-05-28T02:18:08.724Z,78.60
2019-05-28T02:19:08.729Z,78.50
2019-05-28T02:20:08.632Z,78.70
2019-05-28T02:21:08.617Z,78.60
2019-05-28T02:22:08.611Z,78.70
2019-05-28T02:23:08.596Z,78.50
2019-05-28T02:24:08.699Z,78.26
2019-05-28T02:25:08.575Z,78.30
2019-05-28T02:26:08.565Z,78.06
2019-05-28T02:27:08.557Z,78.06
2019-05-28T02:28:08.544Z,77.95
2019-05-28T02:29:08.526Z,78.06
2019-05-28T02:30:08.612Z,77.86
2019-05-28T02:31:08.511Z,77.86
2019-05-28T02:32:08.495Z,77.86
2019-05-28T02:33:08.490Z,77.69
2019-05-28T02:34:08.473Z,77.79
2019-05-28T02:35:08.551Z,77.79
2019-05-28T02:36:08.454Z,78.06
2019-05-28T02:37:08.440Z,77.99
2019-05-28T02:38:08.433Z,77.99
2019-05-28T02:39:08.422Z,77.99
2019-05-28T02:40:08.407Z,77.79
2019-05-28T02:41:08.407Z,77.99
2019-05-28T02:42:08.383Z,78.30
2019-05-28T02:43:08.372Z,78.19
2019-05-28T02:44:08.365Z,78.60
2019-05-28T02:45:08.360Z,78.23
2019-05-28T02:46:08.378Z,78.19
2019-05-28T02:47:08.331Z,78.64
2019-05-28T02:48:08.321Z,78.94
2019-05-28T02:49:08.309Z,78.74
2019-05-28T02:50:08.294Z,78.53
2019-05-28T02:51:08.288Z,78.64
2019-05-28T02:52:08.362Z,78.94
2019-05-28T02:53:08.264Z,78.84
2019-05-28T02:54:08.249Z,78.94
2019-05-28T02:55:08.242Z,78.74
2019-05-28T02:56:08.229Z,78.94
2019-05-28T02:57:08.260Z,78.94
2019-05-28T02:58:08.246Z,78.94
2019-05-28T02:59:08.232Z,79.25
2019-05-28T03:00:08.187Z,79.45
2019-05-28T03:01:08.185Z,79.65
2019-05-28T03:02:08.162Z,79.45
2019-05-28T03:03:08.184Z,79.55
2019-05-28T03:04:08.146Z,79.35
2019-05-28T03:05:08.136Z,79.25
2019-05-28T03:06:08.126Z,79.35
2019-05-28T03:07:08.107Z,78.74
2019-05-28T03:08:08.101Z,78.94
2019-05-28T03:09:08.230Z,79.28
2019-05-28T03:10:08.081Z,79.28
2019-05-28T03:11:08.059Z,79.25
2019-05-28T03:12:08.048Z,78.94
2019-05-28T03:13:08.184Z,78.84
2019-05-28T03:14:08.077Z,78.74
2019-05-28T03:15:08.016Z,79.55
2019-05-28T03:16:08.024Z,79.45
2019-05-28T03:17:07.996Z,79.65
2019-05-28T03:18:07.991Z,79.45
2019-05-28T03:19:07.975Z,79.45
2019-05-28T03:20:08.049Z,79.55
2019-05-28T03:21:07.966Z,79.85
2019-05-28T03:22:07.943Z,79.96
2019-05-28T03:23:07.940Z,79.75
2019-05-28T03:24:07.918Z,79.75
2019-05-28T03:25:07.913Z,79.75
2019-05-28T03:26:08.101Z,79.75
2019-05-28T03:27:07.881Z,79.35
2019-05-28T03:28:07.889Z,79.35
2019-05-28T03:29:07.865Z,79.45
2019-05-28T03:30:07.859Z,79.35
2019-05-28T03:31:07.850Z,79.14
2019-05-28T03:32:09.358Z,79.35
2019-05-28T03:33:07.835Z,79.45
2019-05-28T03:34:07.808Z,79.75
2019-05-28T03:35:07.803Z,79.55
2019-05-28T03:36:07.785Z,79.14
2019-05-28T03:37:07.886Z,79.25
2019-05-28T03:38:07.758Z,79.96
2019-05-28T03:39:07.753Z,79.35
2019-05-28T03:40:07.737Z,79.14
2019-05-28T03:41:07.740Z,79.75
2019-05-28T03:42:07.763Z,79.25
2019-05-28T03:43:07.712Z,79.45
2019-05-28T03:44:07.698Z,79.25
2019-05-28T03:45:07.683Z,78.74
2019-05-28T03:46:07.673Z,78.84
2019-05-28T03:47:07.720Z,78.64
2019-05-28T03:48:07.647Z,78.50
2019-05-28T03:49:07.637Z,78.64
2019-05-28T03:50:07.625Z,78.44
2019-05-28T03:51:07.618Z,78.44
2019-05-28T03:52:07.607Z,78.23
2019-05-28T03:53:07.639Z,78.33
2019-05-28T03:54:07.590Z,78.33
2019-05-28T03:55:07.571Z,78.40
2019-05-28T03:56:07.560Z,78.19
2019-05-28T03:57:07.549Z,77.69
2019-05-28T03:58:07.542Z,77.79
2019-05-28T03:59:07.616Z,77.69
2019-05-28T04:00:07.514Z,78.19
2019-05-28T04:01:07.515Z,78.19
2019-05-28T04:02:22.602Z,77.38
2019-05-28T04:03:08.485Z,77.79
2019-05-28T04:04:07.476Z,77.79
2019-05-28T04:05:07.465Z,77.38
2019-05-28T04:06:07.448Z,76.87
2019-05-28T04:07:07.437Z,76.84
2019-05-28T04:08:07.555Z,76.67
2019-05-28T04:09:07.419Z,76.78
2019-05-28T04:10:07.413Z,76.98
2019-05-28T04:11:07.397Z,77.18
2019-05-28T04:12:07.382Z,76.87
2019-05-28T04:13:07.381Z,76.67
2019-05-28T04:14:07.439Z,76.78
2019-05-28T04:15:07.353Z,76.87
2019-05-28T04:16:07.344Z,77.28
2019-05-28T04:17:07.329Z,77.48
2019-05-28T04:18:07.412Z,76.78
2019-05-28T04:19:07.305Z,77.08
2019-05-28T04:20:07.297Z,76.98
2019-05-28T04:21:07.287Z,76.98
2019-05-28T04:22:07.279Z,77.18
2019-05-28T04:23:07.300Z,76.67
2019-05-28T04:24:07.254Z,76.67
2019-05-28T04:25:07.246Z,76.87
2019-05-28T04:26:07.243Z,77.28
2019-05-28T04:27:07.223Z,76.98
2019-05-28T04:28:07.211Z,76.67
2019-05-28T04:29:07.286Z,76.67
2019-05-28T04:30:07.185Z,76.78
2019-05-28T04:31:07.195Z,76.87
2019-05-28T04:32:07.181Z,76.78
2019-05-28T04:33:07.167Z,76.78
2019-05-28T04:34:07.230Z,76.98
2019-05-28T04:35:07.128Z,76.67
2019-05-28T04:36:07.121Z,76.87
2019-05-28T04:37:07.149Z,77.08
2019-05-28T04:38:07.104Z,76.87
2019-05-28T04:39:07.200Z,76.87
2019-05-28T04:40:07.082Z,77.08
2019-05-28T04:41:07.066Z,76.98
2019-05-28T04:42:07.061Z,77.08
2019-05-28T04:43:07.042Z,76.98
2019-05-28T04:44:07.037Z,76.98
2019-05-28T04:45:07.061Z,76.98
2019-05-28T04:46:07.005Z,76.98
2019-05-28T04:47:08.755Z,76.87
2019-05-28T04:48:06.988Z,77.32
2019-05-28T04:49:06.985Z,77.01
2019-05-28T04:50:06.991Z,77.08
2019-05-28T04:51:06.955Z,77.01
2019-05-28T04:52:06.942Z,76.87
2019-05-28T04:53:06.938Z,76.87
2019-05-28T04:54:06.922Z,77.08
2019-05-28T04:55:06.910Z,76.67
2019-05-28T04:56:07.023Z,76.87
2019-05-28T04:57:06.984Z,76.64
2019-05-28T04:58:06.879Z,75.52
2019-05-28T04:59:06.869Z,76.03
2019-05-28T05:00:06.856Z,75.82
2019-05-28T05:01:06.848Z,75.73
2019-05-28T05:02:06.948Z,75.79
2019-05-28T05:03:06.836Z,75.01
2019-05-28T05:04:06.811Z,75.73
2019-05-28T05:05:06.795Z,75.12
2019-05-28T05:06:06.797Z,74.77
2019-05-28T05:07:06.774Z,75.12
2019-05-28T05:08:06.805Z,74.51
2019-05-28T05:09:06.750Z,74.37
2019-05-28T05:10:06.747Z,75.69
2019-05-28T05:11:06.737Z,75.28
2019-05-28T05:12:06.721Z,73.86
2019-05-28T05:13:06.710Z,73.97
2019-05-28T05:14:08.270Z,74.88
2019-05-28T05:15:06.699Z,73.97
2019-05-28T05:16:06.682Z,74.37
2019-05-28T05:17:06.671Z,74.33
2019-05-28T05:18:06.670Z,74.13
2019-05-28T05:19:06.653Z,73.43
2019-05-28T05:20:06.634Z,73.43
2019-05-28T05:21:06.622Z,72.99
2019-05-28T05:22:06.626Z,72.58
2019-05-28T05:23:06.689Z,72.99
2019-05-28T05:24:06.588Z,72.55
2019-05-28T05:25:06.574Z,71.60
2019-05-28T05:26:06.565Z,71.00
2019-05-28T05:27:06.558Z,71.17
2019-05-28T05:28:06.587Z,70.46
2019-05-28T05:29:06.535Z,69.85
2019-05-28T05:30:06.592Z,69.55
2019-05-28T05:31:06.517Z,69.01
2019-05-28T05:32:06.499Z,69.21
2019-05-28T05:33:19.202Z,69.55
2019-05-28T05:34:07.470Z,69.21
2019-05-28T05:35:06.468Z,68.71
2019-05-28T05:36:06.471Z,68.77
2019-05-28T05:37:06.440Z,68.37
2019-05-28T05:38:06.440Z,68.77
2019-05-28T05:39:06.423Z,68.37
2019-05-28T05:40:06.414Z,68.13
2019-05-28T05:41:06.512Z,67.13
2019-05-28T05:42:06.392Z,67.23
2019-05-28T05:43:06.386Z,67.16
2019-05-28T05:44:06.401Z,67.56
2019-05-28T05:45:07.638Z,67.93
2019-05-28T05:46:06.368Z,66.93
2019-05-28T05:47:06.334Z,66.82
2019-05-28T05:48:06.325Z,67.43
2019-05-28T05:49:06.338Z,67.53
2019-05-28T05:50:06.296Z,66.93
2019-05-28T05:51:06.295Z,67.50
2019-05-28T05:52:06.274Z,66.69
2019-05-28T05:53:06.273Z,66.66
2019-05-28T05:54:06.345Z,66.05
2019-05-28T05:55:06.374Z,65.45
2019-05-28T05:56:06.233Z,64.92
2019-05-28T05:57:06.223Z,64.81
2019-05-28T05:58:06.211Z,64.81
2019-05-28T05:59:06.206Z,65.12
2019-05-28T06:00:06.190Z,65.01
2019-05-28T06:01:06.316Z,64.98
2019-05-28T06:02:06.162Z,64.07
2019-05-28T06:03:06.157Z,63.65
2019-05-28T06:04:06.147Z,63.45
2019-05-28T06:05:06.188Z,63.01
2019-05-28T06:06:06.201Z,62.94
2019-05-28T06:07:06.150Z,63.04
2019-05-28T06:08:06.116Z,63.34
2019-05-28T06:09:06.092Z,63.24
2019-05-28T06:10:06.085Z,63.47
2019-05-28T06:11:06.092Z,62.94
2019-05-28T06:12:06.057Z,62.84
2019-05-28T06:13:06.071Z,62.34
2019-05-28T06:14:06.037Z,62.10
2019-05-28T06:15:06.070Z,60.77
2019-05-28T06:16:06.131Z,60.87
2019-05-28T06:17:06.003Z,59.94
2019-05-28T06:18:06.006Z,59.00
2019-05-28T06:19:05.994Z,58.40
2019-05-28T06:20:05.965Z,58.17
2019-05-28T06:21:14.082Z,57.67
2019-05-28T06:22:07.024Z,57.26
2019-05-28T06:23:05.940Z,56.86
2019-05-28T06:24:05.922Z,56.76
2019-05-28T06:25:05.917Z,57.06
2019-05-28T06:26:05.904Z,57.90
2019-05-28T06:27:05.893Z,57.79
2019-05-28T06:28:05.969Z,57.77
2019-05-28T06:29:05.869Z,57.70
2019-05-28T06:30:05.896Z,57.09
2019-05-28T06:31:05.849Z,57.67
2019-05-28T06:32:05.848Z,58.17
2019-05-28T06:33:05.936Z,58.20
2019-05-28T06:34:05.811Z,58.40
2019-05-28T06:35:05.798Z,58.53
2019-05-28T06:36:05.792Z,59.03
2019-05-28T06:37:05.800Z,59.13
2019-05-28T06:38:05.767Z,58.93
2019-05-28T06:39:05.780Z,58.83
2019-05-28T06:40:05.750Z,58.83
2019-05-28T06:41:05.739Z,59.33
2019-05-28T06:42:05.761Z,58.62
2019-05-28T06:43:05.729Z,58.53
2019-05-28T06:44:05.724Z,58.33
2019-05-28T06:45:05.727Z,58.83
2019-05-28T06:46:05.690Z,58.33
2019-05-28T06:47:05.665Z,58.33
2019-05-28T06:48:05.683Z,58.35
2019-05-28T06:49:05.679Z,58.45
2019-05-28T06:50:05.641Z,59.26
2019-05-28T06:51:05.635Z,59.56
2019-05-28T06:52:05.615Z,59.26
2019-05-28T06:53:05.600Z,59.56
2019-05-28T06:54:05.591Z,58.75
2019-05-28T06:55:05.610Z,58.83
2019-05-28T06:56:05.565Z,58.42
2019-05-28T06:57:21.813Z,58.53
2019-05-28T06:58:06.561Z,58.20
2019-05-28T06:59:05.682Z,57.50
2019-05-28T07:00:05.523Z,55.81
2019-05-28T07:01:05.760Z,55.91
2019-05-28T07:02:05.502Z,56.21
2019-05-28T07:03:05.498Z,56.92
2019-05-28T07:04:13.732Z,57.32
2019-05-28T07:05:06.468Z,56.92
2019-05-28T07:06:07.839Z,57.22
2019-05-28T07:07:05.455Z,55.99
2019-05-28T07:08:05.431Z,56.11
2019-05-28T07:09:05.422Z,56.31
2019-05-28T07:10:05.408Z,56.62
2019-05-28T07:11:05.395Z,54.91
2019-05-28T07:12:05.401Z,55.41
2019-05-28T07:13:05.378Z,55.23
2019-05-28T07:14:05.379Z,55.74
2019-05-28T07:15:05.366Z,56.04
2019-05-28T07:16:05.339Z,55.94
2019-05-28T07:17:05.455Z,55.61
2019-05-28T07:18:05.348Z,55.21
2019-05-28T07:19:23.075Z,54.80
2019-05-28T07:20:06.337Z,55.00
2019-05-28T07:21:05.444Z,55.43
2019-05-28T07:22:05.284Z,56.04
2019-05-28T07:23:05.267Z,55.43
2019-05-28T07:24:05.308Z,55.83
2019-05-28T07:25:05.244Z,55.43
2019-05-28T07:26:05.230Z,55.11
2019-05-28T07:27:05.308Z,54.93
2019-05-28T07:28:11.225Z,55.00
2019-05-28T07:29:06.201Z,54.91
2019-05-28T07:30:05.191Z,54.60
2019-05-28T07:31:05.177Z,54.91
2019-05-28T07:32:05.835Z,55.00
2019-05-28T07:33:05.466Z,55.71
2019-05-28T07:34:05.832Z,55.51
2019-05-28T07:35:05.838Z,54.48
2019-05-28T07:36:05.842Z,54.98
2019-05-28T07:37:05.115Z,54.78
2019-05-28T07:38:05.186Z,54.80
2019-05-28T07:39:05.119Z,53.88
2019-05-28T07:40:05.079Z,55.16
2019-05-28T07:41:05.105Z,53.65
2019-05-28T07:42:05.062Z,52.92
2019-05-28T07:43:05.057Z,53.02
2019-05-28T07:44:05.121Z,53.62
2019-05-28T07:45:05.021Z,53.62
2019-05-28T07:46:05.007Z,54.22
2019-05-28T07:47:04.995Z,53.80
2019-05-28T07:48:04.989Z,53.00
2019-05-28T07:49:05.064Z,53.42
2019-05-28T07:50:04.969Z,52.92
2019-05-28T07:51:04.958Z,53.32
2019-05-28T07:52:04.977Z,53.00
2019-05-28T07:53:04.936Z,53.80
2019-05-28T07:54:05.030Z,52.80
2019-05-28T07:55:04.912Z,52.97
2019-05-28T07:56:04.950Z,52.47
2019-05-28T07:57:04.895Z,52.87
2019-05-28T07:58:04.881Z,52.44
2019-05-28T07:59:04.866Z,52.24
2019-05-28T08:00:05.813Z,50.81
2019-05-28T08:01:04.842Z,50.71
2019-05-28T08:02:04.839Z,50.69
2019-05-28T08:03:04.820Z,50.59
2019-05-28T08:04:04.830Z,51.21
2019-05-28T08:05:04.814Z,51.19
2019-05-28T08:06:04.844Z,50.49
2019-05-28T08:07:04.778Z,51.49
2019-05-28T08:08:04.793Z,51.69
2019-05-28T08:09:04.758Z,51.29
2019-05-28T08:10:04.840Z,50.26
2019-05-28T08:11:04.734Z,49.87
2019-05-28T08:12:04.732Z,48.84
2019-05-28T08:13:04.716Z,48.11
2019-05-28T08:14:04.702Z,47.94
2019-05-28T08:15:04.690Z,48.54
2019-05-28T08:16:17.588Z,48.86
2019-05-28T08:17:05.690Z,48.86
2019-05-28T08:18:04.662Z,48.96
2019-05-28T08:19:04.648Z,49.08
2019-05-28T08:20:04.641Z,49.69
2019-05-28T08:21:04.716Z,50.09
2019-05-28T08:22:04.621Z,50.29
2019-05-28T08:23:04.605Z,50.31
2019-05-28T08:24:04.592Z,50.01
2019-05-28T08:25:04.587Z,49.81
2019-05-28T08:26:04.660Z,50.11
2019-05-28T08:27:04.563Z,50.19
2019-05-28T08:28:19.233Z,50.01
2019-05-28T08:29:05.537Z,49.19
2019-05-28T08:30:04.535Z,48.71
2019-05-28T08:31:14.651Z,49.61
2019-05-28T08:32:05.593Z,49.33
2019-05-28T08:33:04.498Z,49.33
2019-05-28T08:34:04.489Z,49.33
2019-05-28T08:35:06.194Z,49.23
2019-05-28T08:36:04.471Z,49.31
2019-05-28T08:37:06.509Z,48.61
2019-05-28T08:38:04.528Z,48.21
2019-05-28T08:39:04.430Z,48.81
2019-05-28T08:40:04.430Z,48.01
2019-05-28T08:41:04.416Z,47.63
2019-05-28T08:42:04.400Z,47.23
2019-05-28T08:43:04.475Z,47.73
2019-05-28T08:44:04.377Z,48.03
2019-05-28T08:45:04.362Z,48.43
2019-05-28T08:46:04.353Z,48.53
2019-05-28T08:47:04.346Z,47.63
2019-05-28T08:48:04.436Z,47.75
2019-05-28T08:49:04.429Z,47.96
2019-05-28T08:50:04.317Z,47.05
2019-05-28T08:51:04.300Z,47.05
2019-05-28T08:52:04.315Z,46.85
2019-05-28T08:53:04.426Z,46.75
2019-05-28T08:54:04.264Z,46.55
2019-05-28T08:55:04.345Z,46.95
2019-05-28T08:56:04.249Z,46.04
2019-05-28T08:57:04.258Z,46.33
2019-05-28T08:58:04.301Z,45.53
2019-05-28T08:59:04.211Z,45.62
2019-05-28T09:00:04.304Z,45.42
2019-05-28T09:01:04.231Z,45.22
2019-05-28T09:02:04.184Z,46.03
2019-05-28T09:03:05.242Z,46.83
2019-05-28T09:04:04.171Z,46.42
2019-05-28T09:05:24.629Z,46.93
2019-05-28T09:06:05.149Z,45.72
2019-05-28T09:07:04.125Z,45.62
2019-05-28T09:08:04.129Z,45.53
2019-05-28T09:09:04.114Z,45.62
2019-05-28T09:10:04.090Z,45.53
2019-05-28T09:11:04.170Z,45.42
2019-05-28T09:12:04.083Z,46.23
2019-05-28T09:13:04.058Z,45.40
2019-05-28T09:14:04.058Z,45.70
2019-05-28T09:15:04.043Z,46.61
2019-05-28T09:16:04.142Z,47.00
2019-05-28T09:17:04.776Z,47.41
2019-05-28T09:18:04.238Z,45.98
2019-05-28T09:19:03.995Z,44.88
2019-05-28T09:20:03.981Z,45.98
2019-05-28T09:21:03.996Z,46.88
2019-05-28T09:22:04.047Z,47.00
2019-05-28T09:23:03.966Z,46.81
2019-05-28T09:24:03.943Z,47.20
2019-05-28T09:25:03.928Z,46.11
2019-05-28T09:26:03.949Z,45.08
2019-05-28T09:27:03.909Z,45.38
2019-05-28T09:28:03.983Z,45.48
2019-05-28T09:29:03.885Z,45.58
2019-05-28T09:30:03.870Z,45.08
2019-05-28T09:31:03.877Z,44.90
2019-05-28T09:32:03.863Z,43.90
2019-05-28T09:33:03.949Z,44.10
2019-05-28T09:34:03.831Z,45.30
2019-05-28T09:35:03.820Z,45.40
2019-05-28T09:36:08.734Z,45.20
2019-05-28T09:37:04.792Z,44.70
2019-05-28T09:38:03.907Z,44.38
2019-05-28T09:39:03.782Z,43.77
2019-05-28T09:40:03.773Z,44.26
2019-05-28T09:41:05.988Z,43.63
2019-05-28T09:42:03.746Z,43.85
2019-05-28T09:43:03.823Z,43.43
2019-05-28T09:44:03.718Z,40.93
2019-05-28T09:45:21.298Z,41.43
2019-05-28T09:46:04.699Z,41.82
2019-05-28T09:47:03.692Z,41.11
2019-05-28T09:48:03.749Z,42.52
2019-05-28T09:49:03.675Z,42.71
2019-05-28T09:50:03.754Z,42.33
2019-05-28T09:51:03.648Z,42.33
2019-05-28T09:52:03.630Z,42.63
2019-05-28T09:53:03.710Z,42.63
2019-05-28T09:54:03.619Z,41.24
2019-05-28T09:55:03.598Z,42.54
2019-05-28T09:56:03.690Z,42.25
2019-05-28T09:57:03.592Z,42.97
2019-05-28T09:58:03.571Z,43.58
2019-05-28T09:59:04.479Z,43.68
2019-05-28T10:00:03.633Z,43.27
2019-05-28T10:01:03.534Z,43.35
2019-05-28T10:02:03.529Z,43.84
2019-05-28T10:03:04.267Z,43.51
2019-05-28T10:04:03.661Z,43.41
2019-05-28T10:05:03.510Z,43.49
2019-05-28T10:06:16.189Z,43.18
2019-05-28T10:07:04.488Z,42.47
2019-05-28T10:08:03.456Z,41.53
2019-05-28T10:09:03.538Z,39.14
2019-05-28T10:10:03.473Z,39.42
2019-05-28T10:11:03.522Z,38.40
2019-05-28T10:12:03.569Z,38.80
2019-05-28T10:13:03.403Z,38.39
2019-05-28T10:14:03.397Z,38.18
2019-05-28T10:15:03.399Z,37.98
2019-05-28T10:16:03.448Z,38.17
2019-05-28T10:17:03.379Z,37.85
2019-05-28T10:18:03.387Z,37.85
2019-05-28T10:19:03.429Z,37.13
2019-05-28T10:20:03.334Z,37.23
2019-05-28T10:21:17.893Z,36.83
2019-05-28T10:22:04.313Z,36.54
2019-05-28T10:23:03.306Z,36.62
2019-05-28T10:24:03.285Z,37.20
2019-05-28T10:25:03.278Z,35.50
2019-05-28T10:26:03.269Z,35.80
2019-05-28T10:27:03.273Z,36.74
2019-05-28T10:28:03.245Z,36.82
2019-05-28T10:29:03.233Z,36.92
2019-05-28T10:30:03.225Z,37.41
2019-05-28T10:31:03.314Z,37.13
2019-05-28T10:32:03.305Z,36.95
2019-05-28T10:33:03.194Z,38.07
2019-05-28T10:34:03.183Z,38.05
2019-05-28T10:35:04.424Z,37.71
2019-05-28T10:36:03.165Z,37.60
2019-05-28T10:37:03.155Z,37.51
2019-05-28T10:38:03.293Z,36.50
2019-05-28T10:39:03.133Z,37.28
2019-05-28T10:40:03.118Z,36.19
2019-05-28T10:41:03.108Z,35.69
2019-05-28T10:42:03.117Z,36.50
2019-05-28T10:43:03.179Z,35.69
2019-05-28T10:44:03.083Z,35.97
2019-05-28T10:45:03.068Z,35.79
2019-05-28T10:46:03.077Z,36.60
2019-05-28T10:47:03.050Z,37.63
2019-05-28T10:48:03.152Z,37.97
2019-05-28T10:49:03.026Z,39.48
2019-05-28T10:50:03.017Z,39.28
2019-05-28T10:51:03.007Z,39.82
2019-05-28T10:52:02.998Z,40.40
2019-05-28T10:53:03.885Z,39.80
2019-05-28T10:54:03.060Z,40.10
2019-05-28T10:55:03.069Z,40.08
2019-05-28T10:56:03.040Z,38.59
2019-05-28T10:57:02.939Z,38.46
2019-05-28T10:58:02.939Z,38.18
2019-05-28T10:59:02.931Z,39.40
2019-05-28T11:00:03.855Z,39.92
2019-05-28T11:01:02.899Z,40.72
2019-05-28T11:02:02.887Z,40.04
2019-05-28T11:03:02.882Z,40.14
2019-05-28T11:04:02.875Z,40.36
2019-05-28T11:05:02.874Z,41.38
2019-05-28T11:06:02.849Z,41.25
2019-05-28T11:07:02.844Z,41.66
2019-05-28T11:08:02.882Z,41.75
2019-05-28T11:09:02.912Z,41.05
2019-05-28T11:10:02.804Z,41.75
2019-05-28T11:11:02.789Z,40.94
2019-05-28T11:12:02.781Z,41.75
2019-05-28T11:13:02.769Z,41.17
2019-05-28T11:14:02.760Z,42.49
2019-05-28T11:15:02.837Z,43.09
2019-05-28T11:16:02.733Z,42.69
2019-05-28T11:17:02.722Z,41.39
2019-05-28T11:18:02.757Z,41.89
2019-05-28T11:19:02.705Z,41.19
2019-05-28T11:20:02.750Z,41.38
2019-05-28T11:21:08.898Z,41.17
2019-05-28T11:22:03.727Z,41.47
2019-05-28T11:23:02.657Z,41.47
2019-05-28T11:24:02.656Z,41.08
2019-05-28T11:25:02.639Z,42.68
2019-05-28T11:26:02.640Z,42.68
2019-05-28T11:27:02.734Z,42.40
2019-05-28T11:28:02.667Z,42.49
2019-05-28T11:29:02.593Z,42.90
2019-05-28T11:30:02.584Z,43.21
2019-05-28T11:31:02.755Z,44.01
2019-05-28T11:32:02.578Z,43.62
2019-05-28T11:33:02.553Z,43.71
2019-05-28T11:34:02.551Z,43.51
2019-05-28T11:35:02.550Z,43.51
2019-05-28T11:36:02.936Z,43.41
2019-05-28T11:37:09.626Z,43.74
2019-05-28T11:38:03.509Z,43.84
2019-05-28T11:39:02.485Z,43.63
2019-05-28T11:40:02.488Z,43.85
2019-05-28T11:41:02.463Z,44.16
2019-05-28T11:42:02.544Z,44.46
2019-05-28T11:43:02.443Z,43.96
2019-05-28T11:44:02.426Z,44.16
2019-05-28T11:45:02.719Z,43.66
2019-05-28T11:46:02.410Z,44.06
2019-05-28T11:47:02.442Z,43.35
2019-05-28T11:48:02.463Z,43.55
2019-05-28T11:49:02.378Z,43.33
2019-05-28T11:50:02.696Z,42.83
2019-05-28T11:51:02.356Z,42.74
2019-05-28T11:52:02.417Z,42.82
2019-05-28T11:53:02.482Z,42.24
2019-05-28T11:54:02.386Z,42.33
2019-05-28T11:55:02.314Z,41.74
2019-05-28T11:56:02.311Z,42.46
2019-05-28T11:57:02.284Z,42.96
2019-05-28T11:58:02.362Z,43.05
2019-05-28T11:59:02.261Z,43.76
2019-05-28T12:00:02.256Z,42.68
2019-05-28T12:01:02.240Z,43.38
2019-05-28T12:02:04.991Z,43.48
2019-05-28T12:03:02.328Z,43.68
2019-05-28T12:04:02.207Z,43.38
2019-05-28T12:05:02.334Z,44.08
2019-05-28T12:06:02.198Z,44.16
2019-05-28T12:07:02.173Z,43.54
2019-05-28T12:08:02.300Z,42.91
2019-05-28T12:09:02.156Z,42.90
2019-05-28T12:10:02.518Z,43.32
2019-05-28T12:11:02.248Z,42.61
2019-05-28T12:12:02.123Z,42.71
2019-05-28T12:13:02.111Z,42.71
2019-05-28T12:14:02.105Z,42.52
2019-05-28T12:15:02.164Z,41.97
2019-05-28T12:16:02.163Z,41.75
2019-05-28T12:17:02.063Z,40.73
2019-05-28T12:18:02.221Z,40.34
2019-05-28T12:19:02.105Z,39.92
2019-05-28T12:20:02.035Z,40.53
2019-05-28T12:21:02.088Z,40.34
2019-05-28T12:22:02.013Z,40.64
2019-05-28T12:23:11.188Z,40.66
2019-05-28T12:24:03.007Z,41.47
2019-05-28T12:25:02.431Z,41.88
2019-05-28T12:26:01.971Z,41.38
2019-05-28T12:27:01.961Z,41.38
2019-05-28T12:28:02.194Z,40.88
2019-05-28T12:29:01.963Z,41.77
2019-05-28T12:30:02.031Z,41.55
2019-05-28T12:31:01.921Z,40.95
2019-05-28T12:32:02.553Z,40.28
2019-05-28T12:33:02.905Z,41.38
2019-05-28T12:34:01.890Z,41.77
2019-05-28T12:35:01.870Z,41.88
2019-05-28T12:36:01.860Z,41.58
2019-05-28T12:37:01.853Z,41.99
2019-05-28T12:38:01.928Z,42.19
2019-05-28T12:39:01.825Z,42.19
2019-05-28T12:40:01.826Z,42.29
2019-05-28T12:41:01.809Z,42.49
2019-05-28T12:42:06.705Z,42.49
2019-05-28T12:43:02.875Z,41.89
2019-05-28T12:44:01.774Z,41.69
2019-05-28T12:45:09.258Z,42.82
2019-05-28T12:46:02.754Z,41.41
2019-05-28T12:47:01.742Z,41.52
2019-05-28T12:48:11.824Z,41.43
2019-05-28T12:49:02.721Z,42.24
2019-05-28T12:50:18.041Z,41.53
2019-05-28T12:51:02.699Z,41.85
2019-05-28T12:52:01.686Z,41.83